createdAt,value
2019-02-26T00:01:36.018Z,53.6
2019-02-26T00:18:14.001Z,54.0
2019-02-26T00:34:47.516Z,54.0
2019-02-26T00:51:24.822Z,54.4
2019-02-26T01:07:58.982Z,55.2
2019-02-26T01:24:34.714Z,55.2
2019-02-26T01:41:11.269Z,55.6
2019-02-26T01:57:45.708Z,56.0
2019-02-26T02:14:21.226Z,56.4
2019-02-26T02:30:56.580Z,56.8
2019-02-26T02:47:35.715Z,57.2
2019-02-26T03:04:06.808Z,57.6
2019-02-26T03:20:41.677Z,58.0
2019-02-26T03:37:16.282Z,57.6
2019-02-26T03:53:50.983Z,58.0
2019-02-26T04:10:25.603Z,58.0
2019-02-26T04:27:00.269Z,58.0
2019-02-26T04:43:36.301Z,58.0
2019-02-26T05:00:10.522Z,58.8
2019-02-26T05:16:44.280Z,59.2
2019-02-26T05:33:21.454Z,58.8
2019-02-26T05:49:53.328Z,60.0
2019-02-26T06:06:27.334Z,60.4
2019-02-26T06:23:01.673Z,61.2
2019-02-26T06:39:36.280Z,61.2
2019-02-26T06:56:09.747Z,61.6
2019-02-26T07:12:45.522Z,62.0
2019-02-26T07:29:18.409Z,62.4
2019-02-26T07:45:53.135Z,62.4
2019-02-26T09:58:52.330Z,57.2
2019-02-26T10:15:32.311Z,56.0
2019-02-26T10:32:11.943Z,55.2
2019-02-26T10:48:52.861Z,53.6
2019-02-26T11:05:33.691Z,52.4
2019-02-26T11:22:18.103Z,48.8
2019-02-26T11:35:39.704Z,48.8
2019-02-26T11:42:21.248Z,46.0
2019-02-26T11:55:40.662Z,45.6
2019-02-26T12:12:25.728Z,44.0
2019-02-26T12:22:27.874Z,42.8
2019-02-26T12:39:10.068Z,41.2
2019-02-26T12:52:33.116Z,39.2
2019-02-26T13:02:39.330Z,37.2
2019-02-26T13:12:38.099Z,34.8
2019-02-26T13:29:22.310Z,33.2
2019-02-26T13:46:06.660Z,34.4
2019-02-26T14:02:51.112Z,33.2
2019-02-26T14:19:35.627Z,33.6
2019-02-26T14:36:19.987Z,33.2
2019-02-26T14:53:04.282Z,34.0
2019-02-26T15:09:48.389Z,34.4
2019-02-26T15:26:32.416Z,34.4
2019-02-26T15:43:16.397Z,35.2
2019-02-26T15:59:59.601Z,34.8
2019-02-26T16:16:42.799Z,34.8
2019-02-26T16:50:13.100Z,36.0
2019-02-26T17:03:31.694Z,37.6
2019-02-26T17:16:51.760Z,38.0
2019-02-26T17:33:33.449Z,38.8
2019-02-26T17:43:33.874Z,40.8
2019-02-26T18:00:14.793Z,41.6
2019-02-26T18:16:54.986Z,42.0
2019-02-26T18:33:36.161Z,42.8
2019-02-26T18:50:14.911Z,42.8
2019-02-26T19:06:54.475Z,43.6
2019-02-26T19:23:33.733Z,44.8
2019-02-26T19:40:12.633Z,45.2
2019-02-26T19:56:54.627Z,45.6
2019-02-26T20:13:31.709Z,46.8
2019-02-26T20:30:09.577Z,46.8
2019-02-26T20:46:46.712Z,47.2
2019-02-26T21:03:26.447Z,47.6
2019-02-26T21:20:02.242Z,48.0
2019-02-26T21:36:45.066Z,48.4
2019-02-26T21:44:58.153Z,48.8
2019-02-26T22:01:34.797Z,49.6
2019-02-26T22:18:11.528Z,50.0
2019-02-26T22:34:48.112Z,50.0
2019-02-26T22:51:24.557Z,50.8
2019-02-26T23:08:00.817Z,51.2
2019-02-26T23:24:36.836Z,51.2
2019-02-26T23:41:12.627Z,52.4
2019-02-26T23:57:48.533Z,52.4
